createdAt,value
2022-08-30T00:02:47.717Z,17.83
2022-08-30T00:07:50.818Z,17.92
2022-08-30T00:12:52.793Z,17.64
2022-08-30T00:17:59.752Z,17.75
2022-08-30T00:23:01.768Z,17.73
2022-08-30T00:28:04.196Z,17.48
2022-08-30T00:33:06.015Z,17.56
2022-08-30T00:38:08.523Z,17.53
2022-08-30T00:43:27.770Z,17.47
2022-08-30T00:48:31.308Z,17.52
2022-08-30T00:53:38.024Z,17.72
2022-08-30T00:58:44.071Z,17.66
2022-08-30T01:03:46.829Z,17.53
2022-08-30T01:08:48.795Z,17.51
2022-08-30T01:13:53.806Z,17.44
2022-08-30T01:18:57.723Z,17.47
2022-08-30T01:24:02.158Z,17.41
2022-08-30T01:29:15.498Z,17.24
2022-08-30T01:34:17.481Z,17.26
2022-08-30T01:39:19.420Z,17.33
2022-08-30T01:44:21.150Z,17.26
2022-08-30T01:49:27.797Z,17.21
2022-08-30T01:54:33.349Z,17.17
2022-08-30T01:59:54.066Z,17.21
2022-08-30T02:05:00.878Z,17.18
2022-08-30T02:10:04.991Z,17.04
2022-08-30T02:15:07.706Z,17.06
2022-08-30T02:20:21.823Z,17.01
2022-08-30T02:25:23.796Z,17.03
2022-08-30T02:30:25.599Z,17.04
2022-08-30T02:35:27.846Z,17.03
2022-08-30T02:40:31.689Z,17.01
2022-08-30T02:45:38.214Z,17.02
2022-08-30T02:50:42.884Z,17.05
2022-08-30T02:55:44.730Z,17.03
2022-08-30T03:00:47.464Z,16.96
2022-08-30T03:05:49.271Z,16.92
2022-08-30T03:10:51.085Z,16.90
2022-08-30T03:15:52.722Z,17.02
2022-08-30T03:20:55.064Z,16.95
2022-08-30T03:25:57.522Z,16.87
2022-08-30T03:30:59.317Z,16.88
2022-08-30T03:36:02.276Z,16.82
2022-08-30T03:41:05.680Z,16.88
2022-08-30T03:46:12.578Z,16.85
2022-08-30T03:51:14.350Z,16.77
2022-08-30T03:56:24.548Z,16.73
2022-08-30T04:01:26.398Z,16.66
2022-08-30T04:06:28.433Z,16.59
2022-08-30T04:11:30.228Z,16.59
2022-08-30T04:16:32.126Z,16.58
2022-08-30T04:21:34.042Z,16.51
2022-08-30T04:26:44.553Z,16.48
2022-08-30T04:31:46.773Z,16.49
2022-08-30T04:36:49.912Z,16.49
2022-08-30T04:41:52.355Z,16.46
2022-08-30T04:46:54.261Z,16.49
2022-08-30T04:51:56.058Z,16.49
2022-08-30T04:56:57.798Z,16.45
2022-08-30T05:02:00.163Z,16.46
2022-08-30T05:07:01.930Z,16.45
2022-08-30T05:12:03.761Z,16.44
2022-08-30T05:17:05.489Z,16.48
2022-08-30T05:22:07.747Z,16.51
2022-08-30T05:27:09.536Z,16.50
2022-08-30T05:32:15.210Z,16.53
2022-08-30T05:37:24.085Z,16.63
2022-08-30T05:42:26.050Z,16.60
2022-08-30T05:47:28.379Z,16.64
2022-08-30T05:52:30.137Z,16.62
2022-08-30T05:57:33.942Z,16.60
2022-08-30T06:02:53.583Z,16.68
2022-08-30T06:08:05.289Z,16.57
2022-08-30T06:13:07.377Z,16.60
2022-08-30T06:18:14.658Z,16.71
2022-08-30T06:23:17.715Z,16.73
2022-08-30T06:28:19.691Z,16.74
2022-08-30T06:33:23.666Z,16.74
2022-08-30T06:38:40.293Z,16.92
2022-08-30T06:43:50.087Z,16.94
2022-08-30T06:48:56.168Z,16.95
2022-08-30T06:53:58.821Z,17.05
2022-08-30T06:59:01.822Z,17.18
2022-08-30T07:04:04.786Z,17.18
2022-08-30T07:09:06.512Z,17.24
2022-08-30T07:14:38.511Z,17.32
2022-08-30T07:19:41.402Z,17.45
2022-08-30T07:24:45.386Z,17.63
2022-08-30T07:29:49.411Z,17.67
2022-08-30T07:34:51.740Z,17.86
2022-08-30T07:39:53.564Z,17.96
2022-08-30T07:45:04.696Z,18.29
2022-08-30T07:50:08.800Z,18.26
2022-08-30T07:55:10.704Z,18.29
2022-08-30T08:00:12.852Z,18.31
2022-08-30T08:05:17.348Z,18.50
2022-08-30T08:10:24.567Z,18.71
2022-08-30T08:15:26.582Z,18.89
2022-08-30T08:20:28.785Z,18.88
2022-08-30T08:25:31.287Z,19.12
2022-08-30T08:30:36.411Z,19.07
2022-08-30T08:35:43.221Z,19.14
2022-08-30T08:41:13.132Z,19.42
2022-08-30T08:46:41.117Z,19.43
2022-08-30T08:52:06.862Z,19.59
2022-08-30T08:57:13.749Z,19.49
2022-08-30T09:02:29.499Z,19.63
2022-08-30T09:07:37.091Z,19.70
2022-08-30T09:12:38.818Z,19.93
2022-08-30T09:17:49.937Z,20.05
2022-08-30T09:22:51.612Z,20.44
2022-08-30T09:28:12.138Z,20.15
2022-08-30T09:33:21.340Z,20.24
2022-08-30T09:38:30.451Z,20.40
2022-08-30T09:43:34.695Z,20.55
2022-08-30T09:48:45.061Z,20.50
2022-08-30T09:54:19.314Z,20.31
2022-08-30T09:59:51.184Z,20.51
2022-08-30T10:05:01.683Z,20.55
2022-08-30T10:10:09.385Z,20.58
2022-08-30T10:15:32.267Z,20.93
2022-08-30T10:20:56.667Z,21.15
2022-08-30T10:26:34.321Z,21.10
2022-08-30T10:31:46.076Z,21.35
2022-08-30T10:36:55.378Z,21.33
2022-08-30T10:42:07.823Z,21.64
2022-08-30T10:47:50.309Z,21.53
2022-08-30T10:53:10.545Z,21.82
2022-08-30T10:58:12.796Z,21.83
2022-08-30T11:03:51.681Z,21.75
2022-08-30T11:09:08.435Z,21.63
2022-08-30T11:14:16.059Z,21.77
2022-08-30T11:19:23.800Z,21.90
2022-08-30T11:24:27.924Z,21.95
2022-08-30T11:29:37.460Z,21.90
2022-08-30T11:34:45.311Z,22.10
2022-08-30T11:39:47.010Z,22.24
2022-08-30T11:44:48.680Z,22.36
2022-08-30T11:50:08.571Z,22.34
2022-08-30T11:55:45.197Z,22.38
2022-08-30T12:00:51.429Z,22.60
2022-08-30T12:05:59.918Z,22.74
2022-08-30T12:11:26.626Z,22.80
2022-08-30T12:16:28.348Z,22.38
2022-08-30T12:21:43.802Z,22.64
2022-08-30T12:26:49.878Z,22.52
2022-08-30T12:31:56.339Z,22.61
2022-08-30T12:37:11.323Z,22.60
2022-08-30T12:42:35.311Z,22.70
2022-08-30T12:48:03.414Z,22.63
2022-08-30T12:53:14.156Z,22.79
2022-08-30T12:58:16.851Z,22.82
2022-08-30T13:03:37.505Z,22.56
2022-08-30T13:08:45.685Z,22.76
2022-08-30T13:13:52.353Z,22.86
2022-08-30T13:19:14.966Z,22.76
2022-08-30T13:24:16.948Z,22.66
2022-08-30T13:29:22.208Z,23.01
2022-08-30T13:34:24.027Z,23.05
2022-08-30T13:39:26.088Z,23.20
2022-08-30T13:44:28.029Z,23.27
2022-08-30T13:49:50.692Z,23.40
2022-08-30T13:54:55.214Z,23.05
2022-08-30T13:59:57.132Z,23.14
2022-08-30T14:05:02.833Z,23.01
2022-08-30T14:10:45.607Z,23.36
2022-08-30T14:15:28.478Z,23.42
2022-08-30T14:20:30.651Z,23.79
2022-08-30T14:25:32.839Z,23.79
2022-08-30T14:30:34.779Z,23.79
2022-08-30T14:35:36.623Z,23.73
2022-08-30T14:40:38.572Z,23.77
2022-08-30T14:45:40.442Z,23.73
2022-08-30T14:50:44.076Z,23.70
2022-08-30T14:55:45.821Z,23.62
2022-08-30T15:00:52.516Z,23.77
2022-08-30T15:05:54.440Z,23.88
2022-08-30T15:10:56.483Z,23.87
2022-08-30T15:15:58.270Z,23.93
2022-08-30T15:21:00.522Z,23.97
2022-08-30T15:26:02.643Z,23.74
2022-08-30T15:31:08.557Z,23.93
2022-08-30T15:36:12.163Z,23.82
2022-08-30T15:41:15.013Z,23.62
2022-08-30T15:46:29.609Z,23.48
2022-08-30T15:51:38.827Z,23.30
2022-08-30T15:56:44.521Z,23.35
2022-08-30T16:01:47.730Z,23.35
2022-08-30T16:06:50.004Z,23.24
2022-08-30T16:11:51.963Z,23.03
2022-08-30T16:16:55.239Z,23.07
2022-08-30T16:21:57.665Z,23.01
2022-08-30T16:26:59.577Z,22.94
2022-08-30T16:32:02.371Z,22.82
2022-08-30T16:37:04.191Z,22.73
2022-08-30T16:42:08.006Z,22.76
2022-08-30T16:47:13.360Z,22.66
2022-08-30T16:52:16.198Z,22.71
2022-08-30T16:57:19.963Z,22.60
2022-08-30T17:02:22.381Z,22.68
2022-08-30T17:07:24.173Z,22.49
2022-08-30T17:12:26.311Z,22.42
2022-08-30T17:17:28.003Z,22.40
2022-08-30T17:22:35.182Z,22.35
2022-08-30T17:27:37.699Z,22.21
2022-08-30T17:32:39.685Z,22.20
2022-08-30T17:37:42.281Z,22.22
2022-08-30T17:42:45.315Z,22.20
2022-08-30T17:47:48.260Z,22.14
2022-08-30T17:52:50.342Z,21.93
2022-08-30T17:58:16.186Z,21.71
2022-08-30T18:03:17.968Z,21.69
2022-08-30T18:08:21.709Z,21.41
2022-08-30T18:13:28.562Z,21.30
2022-08-30T18:18:32.612Z,21.28
2022-08-30T18:23:35.431Z,21.39
2022-08-30T18:28:41.277Z,21.23
2022-08-30T18:33:43.078Z,21.03
2022-08-30T18:38:45.523Z,20.89
2022-08-30T18:44:01.805Z,20.87
2022-08-30T18:49:16.414Z,20.96
2022-08-30T18:54:25.425Z,20.88
2022-08-30T18:59:35.242Z,20.84
2022-08-30T19:04:43.398Z,20.86
2022-08-30T19:09:48.901Z,20.64
2022-08-30T19:14:51.130Z,20.45
2022-08-30T19:19:53.697Z,20.67
2022-08-30T19:24:55.483Z,20.63
2022-08-30T19:29:58.212Z,20.46
2022-08-30T19:35:00.211Z,20.54
2022-08-30T19:40:09.138Z,20.49
2022-08-30T19:45:12.855Z,20.52
2022-08-30T19:50:15.860Z,20.18
2022-08-30T19:55:17.739Z,20.16
2022-08-30T20:00:25.586Z,20.00
2022-08-30T20:05:27.415Z,19.97
2022-08-30T20:10:36.386Z,19.83
2022-08-30T20:15:38.517Z,19.88
2022-08-30T20:20:40.212Z,20.03
2022-08-30T20:25:41.997Z,19.89
2022-08-30T20:30:43.737Z,19.82
2022-08-30T20:35:49.044Z,19.86
2022-08-30T20:40:54.112Z,19.67
2022-08-30T20:45:56.473Z,19.61
2022-08-30T20:50:58.424Z,19.50
2022-08-30T20:56:00.359Z,19.52
2022-08-30T21:01:02.163Z,19.49
2022-08-30T21:06:04.192Z,19.37
2022-08-30T21:11:06.460Z,19.43
2022-08-30T21:16:08.282Z,19.37
2022-08-30T21:21:21.397Z,19.36
2022-08-30T21:26:24.220Z,19.53
2022-08-30T21:31:30.374Z,19.22
2022-08-30T21:36:47.494Z,19.15
2022-08-30T21:41:53.400Z,19.38
2022-08-30T21:46:55.400Z,19.16
2022-08-30T21:51:57.183Z,19.15
2022-08-30T21:57:00.684Z,19.14
2022-08-30T22:02:02.480Z,19.16
2022-08-30T22:07:06.596Z,19.08
2022-08-30T22:12:08.407Z,19.13
2022-08-30T22:17:10.127Z,19.18
2022-08-30T22:22:13.395Z,19.04
2022-08-30T22:27:15.140Z,19.18
2022-08-30T22:32:16.831Z,19.03
2022-08-30T22:37:19.648Z,18.84
2022-08-30T22:46:20.452Z,18.83
2022-08-30T22:51:34.411Z,18.77
2022-08-30T22:56:38.170Z,18.72
2022-08-30T23:01:43.814Z,18.65
2022-08-30T23:06:50.052Z,18.57
2022-08-30T23:11:51.894Z,18.68
2022-08-30T23:16:53.705Z,18.63
2022-08-30T23:21:55.584Z,18.53
2022-08-30T23:27:15.837Z,18.75
2022-08-30T23:32:36.826Z,18.38
2022-08-30T23:37:57.235Z,18.36
2022-08-30T23:43:17.728Z,18.38
2022-08-30T23:48:38.045Z,18.38
2022-08-30T23:53:58.577Z,18.30
2022-08-30T23:59:18.892Z,18.50
